sensor_id;sensor_type;location;lat;lon;timestamp;temperature;humidity
54576;DHT22;40472;53.486;14.542;2023-05-10T00:02:00;9.70;93.20
54576;DHT22;40472;53.486;14.542;2023-05-10T00:04:26;9.80;93.50
54576;DHT22;40472;53.486;14.542;2023-05-10T00:06:53;9.80;93.60
54576;DHT22;40472;53.486;14.542;2023-05-10T00:09:19;9.70;93.90
54576;DHT22;40472;53.486;14.542;2023-05-10T00:11:45;9.70;94.00
54576;DHT22;40472;53.486;14.542;2023-05-10T00:14:11;9.70;94.10
54576;DHT22;40472;53.486;14.542;2023-05-10T00:16:37;9.70;94.40
54576;DHT22;40472;53.486;14.542;2023-05-10T00:19:03;9.60;94.50
54576;DHT22;40472;53.486;14.542;2023-05-10T00:21:28;9.60;94.90
54576;DHT22;40472;53.486;14.542;2023-05-10T00:23:55;9.60;95.00
54576;DHT22;40472;53.486;14.542;2023-05-10T00:26:20;9.60;95.00
54576;DHT22;40472;53.486;14.542;2023-05-10T00:28:46;9.60;95.40
54576;DHT22;40472;53.486;14.542;2023-05-10T00:31:12;9.60;95.30
54576;DHT22;40472;53.486;14.542;2023-05-10T00:33:47;9.50;95.70
54576;DHT22;40472;53.486;14.542;2023-05-10T00:36:12;9.50;96.00
54576;DHT22;40472;53.486;14.542;2023-05-10T00:38:43;9.50;95.70
54576;DHT22;40472;53.486;14.542;2023-05-10T00:41:12;9.50;95.70
54576;DHT22;40472;53.486;14.542;2023-05-10T00:43:41;9.50;96.00
54576;DHT22;40472;53.486;14.542;2023-05-10T00:46:07;9.60;95.70
54576;DHT22;40472;53.486;14.542;2023-05-10T00:48:33;9.50;95.90
54576;DHT22;40472;53.486;14.542;2023-05-10T00:51:01;9.50;96.20
54576;DHT22;40472;53.486;14.542;2023-05-10T00:53:27;9.40;96.50
54576;DHT22;40472;53.486;14.542;2023-05-10T00:55:53;9.40;96.40
54576;DHT22;40472;53.486;14.542;2023-05-10T00:58:19;9.40;96.70
54576;DHT22;40472;53.486;14.542;2023-05-10T01:00:46;9.40;96.50
54576;DHT22;40472;53.486;14.542;2023-05-10T01:03:13;9.40;96.90
54576;DHT22;40472;53.486;14.542;2023-05-10T01:05:39;9.40;97.00
54576;DHT22;40472;53.486;14.542;2023-05-10T01:08:05;9.30;97.30
54576;DHT22;40472;53.486;14.542;2023-05-10T01:10:31;9.30;97.70
54576;DHT22;40472;53.486;14.542;2023-05-10T01:12:59;9.20;97.90
54576;DHT22;40472;53.486;14.542;2023-05-10T01:15:26;9.20;98.20
54576;DHT22;40472;53.486;14.542;2023-05-10T01:17:52;9.20;98.20
54576;DHT22;40472;53.486;14.542;2023-05-10T01:20:19;9.10;98.60
54576;DHT22;40472;53.486;14.542;2023-05-10T01:23:03;9.10;98.20
54576;DHT22;40472;53.486;14.542;2023-05-10T01:28:35;9.10;98.60
54576;DHT22;40472;53.486;14.542;2023-05-10T01:33:50;8.90;99.50
54576;DHT22;40472;53.486;14.542;2023-05-10T01:36:30;8.90;99.60
54576;DHT22;40472;53.486;14.542;2023-05-10T01:39:08;8.90;99.90
54576;DHT22;40472;53.486;14.542;2023-05-10T01:41:42;8.90;99.90
54576;DHT22;40472;53.486;14.542;2023-05-10T01:44:56;8.80;99.90
54576;DHT22;40472;53.486;14.542;2023-05-10T01:47:16;8.80;99.90
54576;DHT22;40472;53.486;14.542;2023-05-10T01:49:50;8.70;99.90
54576;DHT22;40472;53.486;14.542;2023-05-10T01:52:18;8.70;99.90
54576;DHT22;40472;53.486;14.542;2023-05-10T01:54:58;8.60;99.90
54576;DHT22;40472;53.486;14.542;2023-05-10T01:57:27;8.60;99.90
54576;DHT22;40472;53.486;14.542;2023-05-10T01:59:54;8.60;99.90
54576;DHT22;40472;53.486;14.542;2023-05-10T02:02:21;8.60;99.90
54576;DHT22;40472;53.486;14.542;2023-05-10T02:04:49;8.70;99.90
54576;DHT22;40472;53.486;14.542;2023-05-10T02:07:16;8.70;99.90
54576;DHT22;40472;53.486;14.542;2023-05-10T02:09:44;8.70;99.90
54576;DHT22;40472;53.486;14.542;2023-05-10T02:12:16;8.60;99.90
54576;DHT22;40472;53.486;14.542;2023-05-10T02:14:43;8.60;99.90
54576;DHT22;40472;53.486;14.542;2023-05-10T02:17:11;8.60;99.90
54576;DHT22;40472;53.486;14.542;2023-05-10T02:19:40;8.50;99.90
54576;DHT22;40472;53.486;14.542;2023-05-10T02:22:08;8.40;99.90
54576;DHT22;40472;53.486;14.542;2023-05-10T02:24:34;8.40;99.90
54576;DHT22;40472;53.486;14.542;2023-05-10T02:27:02;8.30;99.90
54576;DHT22;40472;53.486;14.542;2023-05-10T02:29:29;8.30;99.90
54576;DHT22;40472;53.486;14.542;2023-05-10T02:31:57;8.30;99.90
54576;DHT22;40472;53.486;14.542;2023-05-10T02:34:26;8.30;99.90
54576;DHT22;40472;53.486;14.542;2023-05-10T02:36:53;8.30;99.90
54576;DHT22;40472;53.486;14.542;2023-05-10T02:39:21;8.30;99.90
54576;DHT22;40472;53.486;14.542;2023-05-10T02:41:52;8.20;99.90
54576;DHT22;40472;53.486;14.542;2023-05-10T02:44:19;8.20;99.90
54576;DHT22;40472;53.486;14.542;2023-05-10T02:46:48;8.20;99.90
54576;DHT22;40472;53.486;14.542;2023-05-10T02:49:15;8.10;99.90
54576;DHT22;40472;53.486;14.542;2023-05-10T02:51:54;8.10;99.90
54576;DHT22;40472;53.486;14.542;2023-05-10T02:54:27;8.10;99.90
54576;DHT22;40472;53.486;14.542;2023-05-10T02:56:57;8.10;99.90
54576;DHT22;40472;53.486;14.542;2023-05-10T02:59:26;8.10;99.90
54576;DHT22;40472;53.486;14.542;2023-05-10T03:01:51;8.10;99.90
54576;DHT22;40472;53.486;14.542;2023-05-10T03:04:17;8.00;99.90
54576;DHT22;40472;53.486;14.542;2023-05-10T03:06:44;8.10;99.90
54576;DHT22;40472;53.486;14.542;2023-05-10T03:09:13;8.10;99.90
54576;DHT22;40472;53.486;14.542;2023-05-10T03:18:28;8.00;99.90
54576;DHT22;40472;53.486;14.542;2023-05-10T03:20:51;8.00;99.90
54576;DHT22;40472;53.486;14.542;2023-05-10T03:25:55;8.00;99.90
54576;DHT22;40472;53.486;14.542;2023-05-10T03:28:21;7.90;99.90
54576;DHT22;40472;53.486;14.542;2023-05-10T03:30:47;7.90;99.90
54576;DHT22;40472;53.486;14.542;2023-05-10T03:33:14;7.90;99.90
54576;DHT22;40472;53.486;14.542;2023-05-10T03:35:40;7.90;99.90
54576;DHT22;40472;53.486;14.542;2023-05-10T03:38:06;7.90;99.90
54576;DHT22;40472;53.486;14.542;2023-05-10T03:40:32;7.90;99.90
54576;DHT22;40472;53.486;14.542;2023-05-10T03:42:58;7.90;99.90
54576;DHT22;40472;53.486;14.542;2023-05-10T03:45:24;7.90;99.90
54576;DHT22;40472;53.486;14.542;2023-05-10T03:47:50;7.90;99.90
54576;DHT22;40472;53.486;14.542;2023-05-10T03:50:16;7.90;99.90
54576;DHT22;40472;53.486;14.542;2023-05-10T03:52:42;7.90;99.90
54576;DHT22;40472;53.486;14.542;2023-05-10T03:55:09;7.90;99.90
54576;DHT22;40472;53.486;14.542;2023-05-10T03:57:34;8.00;99.90
54576;DHT22;40472;53.486;14.542;2023-05-10T04:00:01;8.00;99.90
54576;DHT22;40472;53.486;14.542;2023-05-10T04:02:26;8.00;99.90
54576;DHT22;40472;53.486;14.542;2023-05-10T04:04:52;8.00;99.90
54576;DHT22;40472;53.486;14.542;2023-05-10T04:07:18;8.00;99.90
54576;DHT22;40472;53.486;14.542;2023-05-10T04:09:43;8.10;99.90
54576;DHT22;40472;53.486;14.542;2023-05-10T04:12:09;8.10;99.90
54576;DHT22;40472;53.486;14.542;2023-05-10T04:14:38;8.10;99.90
54576;DHT22;40472;53.486;14.542;2023-05-10T04:17:06;8.10;99.90
54576;DHT22;40472;53.486;14.542;2023-05-10T04:19:32;8.10;99.90
54576;DHT22;40472;53.486;14.542;2023-05-10T04:21:58;8.20;99.90
54576;DHT22;40472;53.486;14.542;2023-05-10T04:24:24;8.10;99.90
54576;DHT22;40472;53.486;14.542;2023-05-10T04:26:51;8.20;99.90
54576;DHT22;40472;53.486;14.542;2023-05-10T04:29:16;8.20;99.90
54576;DHT22;40472;53.486;14.542;2023-05-10T04:31:42;8.30;99.90
54576;DHT22;40472;53.486;14.542;2023-05-10T04:34:10;8.30;99.90
54576;DHT22;40472;53.486;14.542;2023-05-10T04:36:36;8.30;99.90
54576;DHT22;40472;53.486;14.542;2023-05-10T04:39:03;8.40;99.90
54576;DHT22;40472;53.486;14.542;2023-05-10T04:41:29;8.50;99.90
54576;DHT22;40472;53.486;14.542;2023-05-10T04:43:55;8.50;99.90
54576;DHT22;40472;53.486;14.542;2023-05-10T04:46:21;8.50;99.90
54576;DHT22;40472;53.486;14.542;2023-05-10T04:48:49;8.50;99.90
54576;DHT22;40472;53.486;14.542;2023-05-10T04:51:15;8.60;99.90
54576;DHT22;40472;53.486;14.542;2023-05-10T04:53:43;8.70;99.90
54576;DHT22;40472;53.486;14.542;2023-05-10T04:56:09;8.80;99.90
54576;DHT22;40472;53.486;14.542;2023-05-10T04:58:37;8.80;99.90
54576;DHT22;40472;53.486;14.542;2023-05-10T05:01:07;8.90;99.90
54576;DHT22;40472;53.486;14.542;2023-05-10T05:03:36;8.90;99.90
54576;DHT22;40472;53.486;14.542;2023-05-10T05:06:05;8.90;99.90
54576;DHT22;40472;53.486;14.542;2023-05-10T05:08:31;9.00;99.90
54576;DHT22;40472;53.486;14.542;2023-05-10T05:10:57;9.00;99.90
54576;DHT22;40472;53.486;14.542;2023-05-10T05:13:22;9.10;99.90
54576;DHT22;40472;53.486;14.542;2023-05-10T05:15:50;9.10;99.90
54576;DHT22;40472;53.486;14.542;2023-05-10T05:18:16;9.10;99.90
54576;DHT22;40472;53.486;14.542;2023-05-10T05:20:42;9.20;99.90
54576;DHT22;40472;53.486;14.542;2023-05-10T05:23:08;9.30;99.90
54576;DHT22;40472;53.486;14.542;2023-05-10T05:25:34;9.30;99.90
54576;DHT22;40472;53.486;14.542;2023-05-10T05:27:59;9.40;99.90
54576;DHT22;40472;53.486;14.542;2023-05-10T05:30:25;9.50;99.90
54576;DHT22;40472;53.486;14.542;2023-05-10T05:32:51;9.50;99.90
54576;DHT22;40472;53.486;14.542;2023-05-10T05:35:16;9.60;99.90
54576;DHT22;40472;53.486;14.542;2023-05-10T05:37:44;9.60;99.90
54576;DHT22;40472;53.486;14.542;2023-05-10T05:40:13;9.60;99.90
54576;DHT22;40472;53.486;14.542;2023-05-10T05:42:39;9.70;99.90
54576;DHT22;40472;53.486;14.542;2023-05-10T05:45:05;9.80;99.90
54576;DHT22;40472;53.486;14.542;2023-05-10T05:47:32;9.90;99.90
54576;DHT22;40472;53.486;14.542;2023-05-10T05:49:57;10.00;99.90
54576;DHT22;40472;53.486;14.542;2023-05-10T05:52:23;10.00;99.90
54576;DHT22;40472;53.486;14.542;2023-05-10T05:54:49;10.10;99.90
54576;DHT22;40472;53.486;14.542;2023-05-10T05:57:15;10.10;99.90
54576;DHT22;40472;53.486;14.542;2023-05-10T05:59:43;10.20;99.90
54576;DHT22;40472;53.486;14.542;2023-05-10T06:02:10;10.20;99.90
54576;DHT22;40472;53.486;14.542;2023-05-10T06:04:36;10.40;99.90
54576;DHT22;40472;53.486;14.542;2023-05-10T06:07:04;10.50;99.90
54576;DHT22;40472;53.486;14.542;2023-05-10T06:09:30;10.50;99.90
54576;DHT22;40472;53.486;14.542;2023-05-10T06:12:00;10.60;99.90
54576;DHT22;40472;53.486;14.542;2023-05-10T06:14:27;10.70;99.90
54576;DHT22;40472;53.486;14.542;2023-05-10T06:16:53;10.90;99.90
54576;DHT22;40472;53.486;14.542;2023-05-10T06:19:18;11.00;99.90
54576;DHT22;40472;53.486;14.542;2023-05-10T06:21:47;11.00;99.90
54576;DHT22;40472;53.486;14.542;2023-05-10T06:24:13;11.10;99.90
54576;DHT22;40472;53.486;14.542;2023-05-10T06:26:39;11.20;99.90
54576;DHT22;40472;53.486;14.542;2023-05-10T06:29:04;11.30;99.90
54576;DHT22;40472;53.486;14.542;2023-05-10T06:31:30;11.40;99.90
54576;DHT22;40472;53.486;14.542;2023-05-10T06:33:56;11.40;99.90
54576;DHT22;40472;53.486;14.542;2023-05-10T06:36:23;11.50;99.90
54576;DHT22;40472;53.486;14.542;2023-05-10T06:38:53;11.60;99.90
54576;DHT22;40472;53.486;14.542;2023-05-10T06:41:18;11.70;99.90
54576;DHT22;40472;53.486;14.542;2023-05-10T06:43:44;11.80;99.90
54576;DHT22;40472;53.486;14.542;2023-05-10T06:46:10;11.90;99.90
54576;DHT22;40472;53.486;14.542;2023-05-10T06:48:36;12.00;99.90
54576;DHT22;40472;53.486;14.542;2023-05-10T06:51:01;12.10;99.90
54576;DHT22;40472;53.486;14.542;2023-05-10T06:53:27;12.10;99.10
54576;DHT22;40472;53.486;14.542;2023-05-10T06:55:53;12.20;99.40
54576;DHT22;40472;53.486;14.542;2023-05-10T06:58:18;12.30;99.40
54576;DHT22;40472;53.486;14.542;2023-05-10T07:00:47;12.30;99.70
54576;DHT22;40472;53.486;14.542;2023-05-10T07:03:13;12.40;99.40
54576;DHT22;40472;53.486;14.542;2023-05-10T07:05:39;12.50;99.90
54576;DHT22;40472;53.486;14.542;2023-05-10T07:08:04;12.50;99.30
54576;DHT22;40472;53.486;14.542;2023-05-10T07:10:30;12.70;99.40
54576;DHT22;40472;53.486;14.542;2023-05-10T07:12:56;12.70;99.70
54576;DHT22;40472;53.486;14.542;2023-05-10T07:15:25;12.90;99.50
54576;DHT22;40472;53.486;14.542;2023-05-10T07:17:51;13.00;99.60
54576;DHT22;40472;53.486;14.542;2023-05-10T07:20:17;13.10;99.20
54576;DHT22;40472;53.486;14.542;2023-05-10T07:22:45;13.20;98.20
54576;DHT22;40472;53.486;14.542;2023-05-10T07:25:11;13.30;98.60
54576;DHT22;40472;53.486;14.542;2023-05-10T07:27:39;13.30;97.50
54576;DHT22;40472;53.486;14.542;2023-05-10T07:30:08;13.50;97.90
54576;DHT22;40472;53.486;14.542;2023-05-10T07:32:34;13.50;98.10
54576;DHT22;40472;53.486;14.542;2023-05-10T07:35:04;13.60;97.50
54576;DHT22;40472;53.486;14.542;2023-05-10T07:37:30;13.80;97.60
54576;DHT22;40472;53.486;14.542;2023-05-10T07:40:02;13.80;96.90
54576;DHT22;40472;53.486;14.542;2023-05-10T07:42:28;13.90;96.90
54576;DHT22;40472;53.486;14.542;2023-05-10T07:44:54;14.00;96.70
54576;DHT22;40472;53.486;14.542;2023-05-10T07:47:22;14.00;95.50
54576;DHT22;40472;53.486;14.542;2023-05-10T07:49:51;14.00;95.70
54576;DHT22;40472;53.486;14.542;2023-05-10T07:52:17;14.10;95.70
54576;DHT22;40472;53.486;14.542;2023-05-10T07:54:45;14.20;96.30
54576;DHT22;40472;53.486;14.542;2023-05-10T07:57:11;14.30;95.70
54576;DHT22;40472;53.486;14.542;2023-05-10T07:59:40;14.40;95.60
54576;DHT22;40472;53.486;14.542;2023-05-10T08:02:08;14.40;95.90
54576;DHT22;40472;53.486;14.542;2023-05-10T08:04:34;14.50;95.30
54576;DHT22;40472;53.486;14.542;2023-05-10T08:07:00;14.50;95.80
54576;DHT22;40472;53.486;14.542;2023-05-10T08:09:28;14.60;96.70
54576;DHT22;40472;53.486;14.542;2023-05-10T08:11:54;14.60;96.30
54576;DHT22;40472;53.486;14.542;2023-05-10T08:14:21;14.70;95.80
54576;DHT22;40472;53.486;14.542;2023-05-10T08:16:47;14.70;95.00
54576;DHT22;40472;53.486;14.542;2023-05-10T08:19:13;14.80;95.40
54576;DHT22;40472;53.486;14.542;2023-05-10T08:21:44;14.80;94.80
54576;DHT22;40472;53.486;14.542;2023-05-10T08:24:13;14.80;94.80
54576;DHT22;40472;53.486;14.542;2023-05-10T08:26:39;14.80;95.20
54576;DHT22;40472;53.486;14.542;2023-05-10T08:29:05;14.90;94.70
54576;DHT22;40472;53.486;14.542;2023-05-10T08:31:31;15.00;94.50
54576;DHT22;40472;53.486;14.542;2023-05-10T08:33:57;15.00;94.70
54576;DHT22;40472;53.486;14.542;2023-05-10T08:36:25;15.10;94.70
54576;DHT22;40472;53.486;14.542;2023-05-10T08:38:51;15.20;94.40
54576;DHT22;40472;53.486;14.542;2023-05-10T08:41:19;15.30;94.40
54576;DHT22;40472;53.486;14.542;2023-05-10T08:43:46;15.40;94.60
54576;DHT22;40472;53.486;14.542;2023-05-10T08:46:17;15.60;95.00
54576;DHT22;40472;53.486;14.542;2023-05-10T08:48:47;15.60;94.50
54576;DHT22;40472;53.486;14.542;2023-05-10T08:51:17;15.80;95.80
54576;DHT22;40472;53.486;14.542;2023-05-10T08:53:44;15.90;93.60
54576;DHT22;40472;53.486;14.542;2023-05-10T08:56:10;15.80;93.60
54576;DHT22;40472;53.486;14.542;2023-05-10T08:58:37;15.80;93.40
54576;DHT22;40472;53.486;14.542;2023-05-10T09:01:03;15.90;93.80
54576;DHT22;40472;53.486;14.542;2023-05-10T09:03:30;16.00;94.00
54576;DHT22;40472;53.486;14.542;2023-05-10T09:05:56;16.10;93.60
54576;DHT22;40472;53.486;14.542;2023-05-10T09:08:26;16.10;94.40
54576;DHT22;40472;53.486;14.542;2023-05-10T09:10:53;16.20;92.20
54576;DHT22;40472;53.486;14.542;2023-05-10T09:13:21;16.30;93.30
54576;DHT22;40472;53.486;14.542;2023-05-10T09:15:48;16.40;92.60
54576;DHT22;40472;53.486;14.542;2023-05-10T09:18:14;16.50;93.70
54576;DHT22;40472;53.486;14.542;2023-05-10T09:20:41;16.60;92.70
54576;DHT22;40472;53.486;14.542;2023-05-10T09:23:07;16.70;93.30
54576;DHT22;40472;53.486;14.542;2023-05-10T09:25:33;16.80;90.50
54576;DHT22;40472;53.486;14.542;2023-05-10T09:27:59;16.70;91.80
54576;DHT22;40472;53.486;14.542;2023-05-10T09:30:28;16.70;91.50
54576;DHT22;40472;53.486;14.542;2023-05-10T09:32:55;16.70;90.80
54576;DHT22;40472;53.486;14.542;2023-05-10T09:35:24;16.90;91.00
54576;DHT22;40472;53.486;14.542;2023-05-10T09:37:53;17.00;91.40
54576;DHT22;40472;53.486;14.542;2023-05-10T09:40:23;17.10;91.50
54576;DHT22;40472;53.486;14.542;2023-05-10T09:42:59;17.10;91.50
54576;DHT22;40472;53.486;14.542;2023-05-10T09:45:29;17.20;91.20
54576;DHT22;40472;53.486;14.542;2023-05-10T09:47:56;17.30;92.50
54576;DHT22;40472;53.486;14.542;2023-05-10T09:50:23;17.40;89.30
54576;DHT22;40472;53.486;14.542;2023-05-10T09:52:51;17.30;89.70
54576;DHT22;40472;53.486;14.542;2023-05-10T09:55:20;17.30;90.50
54576;DHT22;40472;53.486;14.542;2023-05-10T09:57:48;17.30;90.60
54576;DHT22;40472;53.486;14.542;2023-05-10T10:00:19;17.40;89.80
54576;DHT22;40472;53.486;14.542;2023-05-10T10:03:03;17.50;88.80
54576;DHT22;40472;53.486;14.542;2023-05-10T10:05:34;17.50;90.40
54576;DHT22;40472;53.486;14.542;2023-05-10T10:08:04;17.60;91.10
54576;DHT22;40472;53.486;14.542;2023-05-10T10:10:31;17.80;90.60
54576;DHT22;40472;53.486;14.542;2023-05-10T10:12:57;17.90;88.10
54576;DHT22;40472;53.486;14.542;2023-05-10T10:15:24;17.90;90.40
54576;DHT22;40472;53.486;14.542;2023-05-10T10:17:51;17.90;88.20
54576;DHT22;40472;53.486;14.542;2023-05-10T10:20:19;17.90;86.10
54576;DHT22;40472;53.486;14.542;2023-05-10T10:22:45;17.90;84.60
54576;DHT22;40472;53.486;14.542;2023-05-10T10:25:13;17.90;84.90
54576;DHT22;40472;53.486;14.542;2023-05-10T10:28:21;18.10;85.80
54576;DHT22;40472;53.486;14.542;2023-05-10T10:30:45;18.00;83.70
54576;DHT22;40472;53.486;14.542;2023-05-10T10:33:40;17.90;82.90
54576;DHT22;40472;53.486;14.542;2023-05-10T10:36:12;17.90;83.00
54576;DHT22;40472;53.486;14.542;2023-05-10T10:42:00;18.10;83.80
54576;DHT22;40472;53.486;14.542;2023-05-10T10:49:43;18.20;83.40
54576;DHT22;40472;53.486;14.542;2023-05-10T10:52:27;18.30;82.10
54576;DHT22;40472;53.486;14.542;2023-05-10T11:02:48;18.50;82.50
54576;DHT22;40472;53.486;14.542;2023-05-10T11:07:55;18.40;79.50
54576;DHT22;40472;53.486;14.542;2023-05-10T11:10:22;18.50;79.70
54576;DHT22;40472;53.486;14.542;2023-05-10T11:13:07;18.50;81.70
54576;DHT22;40472;53.486;14.542;2023-05-10T11:15:39;18.80;79.70
54576;DHT22;40472;53.486;14.542;2023-05-10T11:18:25;18.70;78.50
54576;DHT22;40472;53.486;14.542;2023-05-10T11:20:59;18.70;80.90
54576;DHT22;40472;53.486;14.542;2023-05-10T11:26:08;18.90;78.90
54576;DHT22;40472;53.486;14.542;2023-05-10T11:28:41;18.80;79.90
54576;DHT22;40472;53.486;14.542;2023-05-10T11:31:07;18.90;78.90
54576;DHT22;40472;53.486;14.542;2023-05-10T11:33:43;18.80;78.60
54576;DHT22;40472;53.486;14.542;2023-05-10T11:36:15;18.90;78.00
54576;DHT22;40472;53.486;14.542;2023-05-10T11:38:41;19.00;76.90
54576;DHT22;40472;53.486;14.542;2023-05-10T11:41:10;19.10;76.50
54576;DHT22;40472;53.486;14.542;2023-05-10T11:43:40;19.10;77.40
54576;DHT22;40472;53.486;14.542;2023-05-10T11:46:10;19.10;76.40
54576;DHT22;40472;53.486;14.542;2023-05-10T11:48:38;19.00;76.60
54576;DHT22;40472;53.486;14.542;2023-05-10T11:51:04;19.00;76.20
54576;DHT22;40472;53.486;14.542;2023-05-10T11:53:32;19.10;77.50
54576;DHT22;40472;53.486;14.542;2023-05-10T11:56:24;19.10;76.10
54576;DHT22;40472;53.486;14.542;2023-05-10T11:58:57;19.00;75.00
54576;DHT22;40472;53.486;14.542;2023-05-10T12:01:27;19.00;77.30
54576;DHT22;40472;53.486;14.542;2023-05-10T12:03:55;19.20;78.30
54576;DHT22;40472;53.486;14.542;2023-05-10T12:06:27;19.60;74.10
54576;DHT22;40472;53.486;14.542;2023-05-10T12:08:54;19.70;75.50
54576;DHT22;40472;53.486;14.542;2023-05-10T12:11:24;19.90;75.50
54576;DHT22;40472;53.486;14.542;2023-05-10T12:13:50;19.70;74.50
54576;DHT22;40472;53.486;14.542;2023-05-10T12:16:21;19.60;74.10
54576;DHT22;40472;53.486;14.542;2023-05-10T12:18:51;19.50;74.10
54576;DHT22;40472;53.486;14.542;2023-05-10T12:21:18;19.50;72.90
54576;DHT22;40472;53.486;14.542;2023-05-10T12:23:49;19.50;75.10
54576;DHT22;40472;53.486;14.542;2023-05-10T12:26:16;19.50;73.50
54576;DHT22;40472;53.486;14.542;2023-05-10T12:28:42;19.60;74.20
54576;DHT22;40472;53.486;14.542;2023-05-10T12:31:08;19.70;74.40
54576;DHT22;40472;53.486;14.542;2023-05-10T12:33:42;19.60;74.20
54576;DHT22;40472;53.486;14.542;2023-05-10T12:36:09;19.80;74.70
54576;DHT22;40472;53.486;14.542;2023-05-10T12:41:08;19.80;73.10
54576;DHT22;40472;53.486;14.542;2023-05-10T12:43:35;20.10;75.00
54576;DHT22;40472;53.486;14.542;2023-05-10T12:46:19;19.70;71.60
54576;DHT22;40472;53.486;14.542;2023-05-10T12:48:45;19.70;73.30
54576;DHT22;40472;53.486;14.542;2023-05-10T12:51:12;19.60;72.40
54576;DHT22;40472;53.486;14.542;2023-05-10T12:53:41;19.80;72.80
54576;DHT22;40472;53.486;14.542;2023-05-10T12:56:07;20.00;72.50
54576;DHT22;40472;53.486;14.542;2023-05-10T12:58:33;20.00;72.40
54576;DHT22;40472;53.486;14.542;2023-05-10T13:00:59;19.90;71.00
54576;DHT22;40472;53.486;14.542;2023-05-10T13:03:25;19.90;73.30
54576;DHT22;40472;53.486;14.542;2023-05-10T13:05:51;19.90;72.20
54576;DHT22;40472;53.486;14.542;2023-05-10T13:08:17;20.10;74.20
54576;DHT22;40472;53.486;14.542;2023-05-10T13:10:43;20.10;72.60
54576;DHT22;40472;53.486;14.542;2023-05-10T13:13:08;19.90;71.50
54576;DHT22;40472;53.486;14.542;2023-05-10T13:15:35;20.00;72.20
54576;DHT22;40472;53.486;14.542;2023-05-10T13:18:01;20.20;74.00
54576;DHT22;40472;53.486;14.542;2023-05-10T13:20:27;20.30;75.00
54576;DHT22;40472;53.486;14.542;2023-05-10T13:22:53;20.50;71.50
54576;DHT22;40472;53.486;14.542;2023-05-10T13:25:19;20.40;72.00
54576;DHT22;40472;53.486;14.542;2023-05-10T13:27:45;20.40;71.70
54576;DHT22;40472;53.486;14.542;2023-05-10T13:30:11;20.40;71.40
54576;DHT22;40472;53.486;14.542;2023-05-10T13:32:38;20.20;71.10
54576;DHT22;40472;53.486;14.542;2023-05-10T13:35:04;20.30;71.20
54576;DHT22;40472;53.486;14.542;2023-05-10T13:37:31;20.20;71.20
54576;DHT22;40472;53.486;14.542;2023-05-10T13:40:04;20.30;72.30
54576;DHT22;40472;53.486;14.542;2023-05-10T13:42:31;20.40;70.20
54576;DHT22;40472;53.486;14.542;2023-05-10T13:45:00;20.20;70.40
54576;DHT22;40472;53.486;14.542;2023-05-10T13:47:41;20.20;71.10
54576;DHT22;40472;53.486;14.542;2023-05-10T13:50:07;20.40;70.20
54576;DHT22;40472;53.486;14.542;2023-05-10T13:52:34;20.50;71.10
54576;DHT22;40472;53.486;14.542;2023-05-10T13:55:00;20.60;71.20
54576;DHT22;40472;53.486;14.542;2023-05-10T13:57:26;20.60;70.80
54576;DHT22;40472;53.486;14.542;2023-05-10T13:59:54;21.00;69.30
54576;DHT22;40472;53.486;14.542;2023-05-10T14:02:22;20.90;69.00
54576;DHT22;40472;53.486;14.542;2023-05-10T14:04:48;21.00;68.80
54576;DHT22;40472;53.486;14.542;2023-05-10T14:07:17;20.90;70.80
54576;DHT22;40472;53.486;14.542;2023-05-10T14:09:43;20.80;70.00
54576;DHT22;40472;53.486;14.542;2023-05-10T14:12:09;20.80;70.20
54576;DHT22;40472;53.486;14.542;2023-05-10T14:14:35;20.80;70.70
54576;DHT22;40472;53.486;14.542;2023-05-10T14:17:03;20.60;70.20
54576;DHT22;40472;53.486;14.542;2023-05-10T14:19:29;20.70;70.60
54576;DHT22;40472;53.486;14.542;2023-05-10T14:22:00;20.80;69.60
54576;DHT22;40472;53.486;14.542;2023-05-10T14:24:28;20.70;69.80
54576;DHT22;40472;53.486;14.542;2023-05-10T14:26:54;20.70;70.20
54576;DHT22;40472;53.486;14.542;2023-05-10T14:29:20;21.00;71.30
54576;DHT22;40472;53.486;14.542;2023-05-10T14:31:46;20.80;69.10
54576;DHT22;40472;53.486;14.542;2023-05-10T14:34:12;21.10;71.00
54576;DHT22;40472;53.486;14.542;2023-05-10T14:36:38;21.10;70.20
54576;DHT22;40472;53.486;14.542;2023-05-10T14:39:06;21.10;69.40
54576;DHT22;40472;53.486;14.542;2023-05-10T14:41:32;21.00;68.50
54576;DHT22;40472;53.486;14.542;2023-05-10T14:44:00;20.90;69.50
54576;DHT22;40472;53.486;14.542;2023-05-10T14:46:28;20.80;68.90
54576;DHT22;40472;53.486;14.542;2023-05-10T14:48:57;21.00;69.00
54576;DHT22;40472;53.486;14.542;2023-05-10T14:51:23;21.00;68.40
54576;DHT22;40472;53.486;14.542;2023-05-10T14:53:49;21.00;68.20
54576;DHT22;40472;53.486;14.542;2023-05-10T14:56:15;21.00;69.40
54576;DHT22;40472;53.486;14.542;2023-05-10T14:58:41;21.20;69.00
54576;DHT22;40472;53.486;14.542;2023-05-10T15:01:07;21.20;67.50
54576;DHT22;40472;53.486;14.542;2023-05-10T15:03:33;21.10;69.20
54576;DHT22;40472;53.486;14.542;2023-05-10T15:06:01;21.20;68.80
54576;DHT22;40472;53.486;14.542;2023-05-10T15:08:27;21.20;68.80
54576;DHT22;40472;53.486;14.542;2023-05-10T15:10:53;21.40;68.10
54576;DHT22;40472;53.486;14.542;2023-05-10T15:13:21;21.40;67.70
54576;DHT22;40472;53.486;14.542;2023-05-10T15:15:53;21.30;67.70
54576;DHT22;40472;53.486;14.542;2023-05-10T15:18:19;21.20;67.60
54576;DHT22;40472;53.486;14.542;2023-05-10T15:20:44;20.90;69.00
54576;DHT22;40472;53.486;14.542;2023-05-10T15:23:10;20.90;70.70
54576;DHT22;40472;53.486;14.542;2023-05-10T15:25:36;21.00;69.30
54576;DHT22;40472;53.486;14.542;2023-05-10T15:28:03;21.40;68.90
54576;DHT22;40472;53.486;14.542;2023-05-10T15:30:30;21.10;65.10
54576;DHT22;40472;53.486;14.542;2023-05-10T15:33:02;21.30;67.00
54576;DHT22;40472;53.486;14.542;2023-05-10T15:35:33;21.30;66.70
54576;DHT22;40472;53.486;14.542;2023-05-10T15:38:01;21.80;65.30
54576;DHT22;40472;53.486;14.542;2023-05-10T15:40:27;22.10;66.30
54576;DHT22;40472;53.486;14.542;2023-05-10T15:42:52;21.90;65.00
54576;DHT22;40472;53.486;14.542;2023-05-10T15:45:18;22.40;63.10
54576;DHT22;40472;53.486;14.542;2023-05-10T15:47:45;22.90;60.70
54576;DHT22;40472;53.486;14.542;2023-05-10T15:50:11;22.70;62.20
54576;DHT22;40472;53.486;14.542;2023-05-10T15:52:37;23.20;59.50
54576;DHT22;40472;53.486;14.542;2023-05-10T15:55:03;23.40;60.00
54576;DHT22;40472;53.486;14.542;2023-05-10T15:57:29;23.30;60.20
54576;DHT22;40472;53.486;14.542;2023-05-10T15:59:55;23.20;58.90
54576;DHT22;40472;53.486;14.542;2023-05-10T16:02:21;23.60;59.00
54576;DHT22;40472;53.486;14.542;2023-05-10T16:04:47;23.50;58.00
54576;DHT22;40472;53.486;14.542;2023-05-10T16:07:13;23.50;57.90